sensor_id;sensor_type;location;lat;lon;timestamp;pressure;altitude;pressure_sealevel;temperature;humidity
38616;BME280;24370;51.986;4.666;2023-03-14T00:00:10;98918.28;;;17.24;47.27
38616;BME280;24370;51.986;4.666;2023-03-14T00:02:37;98916.25;;;16.74;49.06
38616;BME280;24370;51.986;4.666;2023-03-14T00:05:02;98922.34;;;16.07;50.61
38616;BME280;24370;51.986;4.666;2023-03-14T00:07:38;98921.28;;;16.52;49.45
38616;BME280;24370;51.986;4.666;2023-03-14T00:10:06;98913.28;;;16.66;50.02
38616;BME280;24370;51.986;4.666;2023-03-14T00:12:32;98911.56;;;16.52;51.11
38616;BME280;24370;51.986;4.666;2023-03-14T00:14:57;98906.81;;;16.85;50.44
38616;BME280;24370;51.986;4.666;2023-03-14T00:17:25;98907.16;;;16.11;51.50
38616;BME280;24370;51.986;4.666;2023-03-14T00:19:51;98908.28;;;16.07;52.21
38616;BME280;24370;51.986;4.666;2023-03-14T00:22:19;98902.47;;;16.43;51.17
38616;BME280;24370;51.986;4.666;2023-03-14T00:24:44;98902.75;;;16.11;51.59
38616;BME280;24370;51.986;4.666;2023-03-14T00:27:09;98915.88;;;16.81;50.65
38616;BME280;24370;51.986;4.666;2023-03-14T00:29:35;98916.03;;;16.37;53.07
38616;BME280;24370;51.986;4.666;2023-03-14T00:32:00;98918.88;;;16.89;51.78
38616;BME280;24370;51.986;4.666;2023-03-14T00:34:29;98920.59;;;16.48;53.17
38616;BME280;24370;51.986;4.666;2023-03-14T00:36:55;98922.34;;;15.50;56.48
38616;BME280;24370;51.986;4.666;2023-03-14T00:39:20;98917.13;;;16.20;55.77
38616;BME280;24370;51.986;4.666;2023-03-14T00:41:46;98923.59;;;16.29;56.00
38616;BME280;24370;51.986;4.666;2023-03-14T00:44:11;98910.03;;;16.90;54.62
38616;BME280;24370;51.986;4.666;2023-03-14T00:46:36;98913.34;;;16.52;56.91
38616;BME280;24370;51.986;4.666;2023-03-14T00:49:02;98924.72;;;16.25;56.65
38616;BME280;24370;51.986;4.666;2023-03-14T00:51:27;98929.22;;;16.37;55.48
38616;BME280;24370;51.986;4.666;2023-03-14T00:53:53;98929.69;;;16.02;57.85
38616;BME280;24370;51.986;4.666;2023-03-14T00:56:18;98936.75;;;16.29;57.54
38616;BME280;24370;51.986;4.666;2023-03-14T00:58:44;98947.75;;;16.77;54.86
38616;BME280;24370;51.986;4.666;2023-03-14T01:01:13;98930.03;;;15.67;58.42
38616;BME280;24370;51.986;4.666;2023-03-14T01:03:39;98927.84;;;16.59;55.98
38616;BME280;24370;51.986;4.666;2023-03-14T01:06:16;98929.06;;;16.81;54.64
38616;BME280;24370;51.986;4.666;2023-03-14T01:08:43;98930.31;;;16.06;58.15
38616;BME280;24370;51.986;4.666;2023-03-14T01:11:11;98914.66;;;16.99;53.54
38616;BME280;24370;51.986;4.666;2023-03-14T01:13:37;98914.09;;;16.54;55.07
38616;BME280;24370;51.986;4.666;2023-03-14T01:16:04;98917.50;;;16.56;55.24
38616;BME280;24370;51.986;4.666;2023-03-14T01:18:32;98919.88;;;15.61;60.35
38616;BME280;24370;51.986;4.666;2023-03-14T01:20:58;98917.41;;;16.43;57.79
38616;BME280;24370;51.986;4.666;2023-03-14T01:23:23;98918.16;;;16.18;58.67
38616;BME280;24370;51.986;4.666;2023-03-14T01:25:49;98924.34;;;16.31;59.24
38616;BME280;24370;51.986;4.666;2023-03-14T01:28:14;98920.44;;;15.52;60.52
38616;BME280;24370;51.986;4.666;2023-03-14T01:30:41;98925.13;;;16.19;57.82
38616;BME280;24370;51.986;4.666;2023-03-14T01:33:06;98923.00;;;16.38;57.43
38616;BME280;24370;51.986;4.666;2023-03-14T01:35:31;98918.38;;;16.69;56.33
38616;BME280;24370;51.986;4.666;2023-03-14T01:37:57;98916.09;;;16.08;57.39
38616;BME280;24370;51.986;4.666;2023-03-14T01:40:22;98922.34;;;15.50;59.49
38616;BME280;24370;51.986;4.666;2023-03-14T01:42:55;98904.75;;;16.90;55.64
38616;BME280;24370;51.986;4.666;2023-03-14T01:48:30;98901.56;;;16.30;57.66
38616;BME280;24370;51.986;4.666;2023-03-14T01:50:56;98895.97;;;16.07;56.84
38616;BME280;24370;51.986;4.666;2023-03-14T01:53:23;98907.41;;;16.75;55.67
38616;BME280;24370;51.986;4.666;2023-03-14T01:55:50;98903.38;;;16.15;56.51
38616;BME280;24370;51.986;4.666;2023-03-14T01:58:17;98900.84;;;16.14;57.81
38616;BME280;24370;51.986;4.666;2023-03-14T02:00:42;98894.66;;;16.82;54.91
38616;BME280;24370;51.986;4.666;2023-03-14T02:03:15;98898.28;;;16.54;55.23
38616;BME280;24370;51.986;4.666;2023-03-14T02:05:42;98896.00;;;15.64;57.73
38616;BME280;24370;51.986;4.666;2023-03-14T02:08:11;98896.50;;;16.13;57.59
38616;BME280;24370;51.986;4.666;2023-03-14T02:10:42;98873.31;;;17.00;54.68
38616;BME280;24370;51.986;4.666;2023-03-14T02:13:10;98873.25;;;16.47;55.74
38616;BME280;24370;51.986;4.666;2023-03-14T02:15:37;98876.06;;;15.89;57.63
38616;BME280;24370;51.986;4.666;2023-03-14T02:18:04;98880.38;;;15.90;57.99
38616;BME280;24370;51.986;4.666;2023-03-14T02:20:40;98877.97;;;16.41;56.49
38616;BME280;24370;51.986;4.666;2023-03-14T02:23:06;98877.94;;;17.09;54.48
38616;BME280;24370;51.986;4.666;2023-03-14T02:28:15;98867.03;;;15.64;59.72
38616;BME280;24370;51.986;4.666;2023-03-14T02:30:42;98867.41;;;15.29;61.50
38616;BME280;24370;51.986;4.666;2023-03-14T02:33:10;98871.09;;;15.55;61.77
38616;BME280;24370;51.986;4.666;2023-03-14T02:35:40;98867.41;;;16.28;57.05
38616;BME280;24370;51.986;4.666;2023-03-14T02:40:59;98865.69;;;16.27;60.68
38616;BME280;24370;51.986;4.666;2023-03-14T02:43:25;98864.31;;;16.62;57.54
38616;BME280;24370;51.986;4.666;2023-03-14T02:45:51;98866.66;;;15.41;60.66
38616;BME280;24370;51.986;4.666;2023-03-14T02:50:48;98851.88;;;15.97;60.96
38616;BME280;24370;51.986;4.666;2023-03-14T02:53:18;98859.69;;;15.69;62.56
38616;BME280;24370;51.986;4.666;2023-03-14T02:55:46;98846.22;;;15.74;62.19
38616;BME280;24370;51.986;4.666;2023-03-14T02:58:12;98853.50;;;15.27;64.43
38616;BME280;24370;51.986;4.666;2023-03-14T03:00:37;98853.47;;;15.85;61.88
38616;BME280;24370;51.986;4.666;2023-03-14T03:03:02;98856.31;;;15.82;61.75
38616;BME280;24370;51.986;4.666;2023-03-14T03:05:30;98861.38;;;15.27;63.27
38616;BME280;24370;51.986;4.666;2023-03-14T03:07:56;98849.53;;;16.47;57.53
38616;BME280;24370;51.986;4.666;2023-03-14T03:10:22;98842.28;;;15.67;60.13
38616;BME280;24370;51.986;4.666;2023-03-14T03:12:47;98847.81;;;14.75;64.74
38616;BME280;24370;51.986;4.666;2023-03-14T03:15:13;98836.91;;;15.97;61.53
38616;BME280;24370;51.986;4.666;2023-03-14T03:17:38;98847.09;;;15.17;63.91
38616;BME280;24370;51.986;4.666;2023-03-14T03:20:04;98844.84;;;15.54;62.22
38616;BME280;24370;51.986;4.666;2023-03-14T03:22:30;98841.59;;;16.06;59.56
38616;BME280;24370;51.986;4.666;2023-03-14T03:24:56;98842.28;;;16.23;58.54
38616;BME280;24370;51.986;4.666;2023-03-14T03:27:21;98832.06;;;16.58;57.52
38616;BME280;24370;51.986;4.666;2023-03-14T03:29:46;98836.47;;;16.58;56.79
38616;BME280;24370;51.986;4.666;2023-03-14T03:32:12;98831.25;;;16.03;59.07
38616;BME280;24370;51.986;4.666;2023-03-14T03:34:38;98824.53;;;15.70;59.52
38616;BME280;24370;51.986;4.666;2023-03-14T03:37:03;98826.97;;;15.59;61.08
38616;BME280;24370;51.986;4.666;2023-03-14T03:39:28;98837.50;;;16.42;57.60
38616;BME280;24370;51.986;4.666;2023-03-14T03:41:54;98837.47;;;16.30;57.58
38616;BME280;24370;51.986;4.666;2023-03-14T03:44:19;98828.22;;;16.22;58.47
38616;BME280;24370;51.986;4.666;2023-03-14T03:46:45;98819.94;;;16.01;58.55
38616;BME280;24370;51.986;4.666;2023-03-14T03:49:11;98830.94;;;16.35;58.02
38616;BME280;24370;51.986;4.666;2023-03-14T03:51:36;98820.09;;;15.71;61.61
38616;BME280;24370;51.986;4.666;2023-03-14T03:54:01;98835.22;;;15.67;61.53
38616;BME280;24370;51.986;4.666;2023-03-14T03:56:27;98831.38;;;16.15;59.32
38616;BME280;24370;51.986;4.666;2023-03-14T03:58:52;98834.84;;;16.15;58.27
38616;BME280;24370;51.986;4.666;2023-03-14T04:01:17;98824.91;;;16.06;58.84
38616;BME280;24370;51.986;4.666;2023-03-14T04:03:43;98821.13;;;15.68;61.19
38616;BME280;24370;51.986;4.666;2023-03-14T04:06:10;98834.66;;;15.91;59.04
38616;BME280;24370;51.986;4.666;2023-03-14T04:08:36;98834.84;;;15.73;60.03
38616;BME280;24370;51.986;4.666;2023-03-14T04:11:03;98836.22;;;15.37;61.38
38616;BME280;24370;51.986;4.666;2023-03-14T04:13:28;98841.09;;;16.94;54.69
38616;BME280;24370;51.986;4.666;2023-03-14T04:15:54;98825.47;;;15.55;61.70
38616;BME280;24370;51.986;4.666;2023-03-14T04:18:21;98832.53;;;16.10;57.86
38616;BME280;24370;51.986;4.666;2023-03-14T04:20:57;98836.97;;;15.54;62.21
38616;BME280;24370;51.986;4.666;2023-03-14T04:23:23;98826.91;;;16.02;61.80
38616;BME280;24370;51.986;4.666;2023-03-14T04:25:50;98829.88;;;15.83;63.32
38616;BME280;24370;51.986;4.666;2023-03-14T04:28:15;98827.66;;;15.34;65.78
38616;BME280;24370;51.986;4.666;2023-03-14T04:30:41;98830.72;;;16.11;61.85
38616;BME280;24370;51.986;4.666;2023-03-14T04:33:06;98829.56;;;16.02;63.88
38616;BME280;24370;51.986;4.666;2023-03-14T04:35:32;98837.97;;;15.66;65.37
38616;BME280;24370;51.986;4.666;2023-03-14T04:37:58;98828.28;;;16.75;61.28
38616;BME280;24370;51.986;4.666;2023-03-14T04:40:24;98820.53;;;15.77;65.83
38616;BME280;24370;51.986;4.666;2023-03-14T04:42:50;98820.44;;;15.93;66.14
38616;BME280;24370;51.986;4.666;2023-03-14T04:45:15;98819.25;;;15.70;67.23
38616;BME280;24370;51.986;4.666;2023-03-14T04:47:40;98815.09;;;15.95;66.88
38616;BME280;24370;51.986;4.666;2023-03-14T04:50:06;98817.31;;;15.31;68.96
38616;BME280;24370;51.986;4.666;2023-03-14T04:52:32;98819.44;;;15.38;70.82
38616;BME280;24370;51.986;4.666;2023-03-14T04:54:57;98816.97;;;16.20;68.63
38616;BME280;24370;51.986;4.666;2023-03-14T04:57:22;98828.47;;;14.61;75.26
38616;BME280;24370;51.986;4.666;2023-03-14T04:59:48;98827.88;;;14.86;75.72
38616;BME280;24370;51.986;4.666;2023-03-14T05:02:13;98822.38;;;16.04;67.94
38616;BME280;24370;51.986;4.666;2023-03-14T05:04:38;98824.38;;;16.28;69.20
38616;BME280;24370;51.986;4.666;2023-03-14T05:07:03;98823.56;;;16.40;67.68
38616;BME280;24370;51.986;4.666;2023-03-14T05:09:29;98821.28;;;16.49;66.72
38616;BME280;24370;51.986;4.666;2023-03-14T05:11:55;98806.94;;;16.53;68.04
38616;BME280;24370;51.986;4.666;2023-03-14T05:14:20;98813.34;;;15.09;73.86
38616;BME280;24370;51.986;4.666;2023-03-14T05:16:46;98812.94;;;16.15;69.61
38616;BME280;24370;51.986;4.666;2023-03-14T05:19:11;98811.34;;;15.85;71.22
38616;BME280;24370;51.986;4.666;2023-03-14T05:21:37;98804.56;;;15.81;73.44
38616;BME280;24370;51.986;4.666;2023-03-14T05:24:02;98804.59;;;14.80;77.61
38616;BME280;24370;51.986;4.666;2023-03-14T05:26:28;98800.66;;;15.01;79.16
38616;BME280;24370;51.986;4.666;2023-03-14T05:28:53;98808.34;;;14.90;77.62
38616;BME280;24370;51.986;4.666;2023-03-14T05:31:19;98800.69;;;15.16;78.40
38616;BME280;24370;51.986;4.666;2023-03-14T05:33:44;98813.03;;;14.70;80.90
38616;BME280;24370;51.986;4.666;2023-03-14T05:36:09;98808.34;;;13.99;83.54
38616;BME280;24370;51.986;4.666;2023-03-14T05:38:35;98811.28;;;14.85;83.49
38616;BME280;24370;51.986;4.666;2023-03-14T05:41:00;98819.06;;;14.87;86.08
38616;BME280;24370;51.986;4.666;2023-03-14T05:43:25;98852.00;;;15.23;77.87
38616;BME280;24370;51.986;4.666;2023-03-14T05:45:51;98878.72;;;14.24;86.22
38616;BME280;24370;51.986;4.666;2023-03-14T05:48:16;98874.94;;;14.60;82.62
38616;BME280;24370;51.986;4.666;2023-03-14T05:50:42;98889.91;;;14.12;80.99
38616;BME280;24370;51.986;4.666;2023-03-14T05:53:07;98908.28;;;13.46;82.12
38616;BME280;24370;51.986;4.666;2023-03-14T05:55:33;98917.03;;;13.29;78.64
38616;BME280;24370;51.986;4.666;2023-03-14T05:57:58;98911.66;;;12.80;82.25
38616;BME280;24370;51.986;4.666;2023-03-14T06:00:24;98915.00;;;13.85;74.91
38616;BME280;24370;51.986;4.666;2023-03-14T06:02:49;98930.41;;;13.24;78.08
38616;BME280;24370;51.986;4.666;2023-03-14T06:05:14;98936.16;;;12.79;83.19
38616;BME280;24370;51.986;4.666;2023-03-14T06:07:40;98946.59;;;13.33;83.27
38616;BME280;24370;51.986;4.666;2023-03-14T06:10:05;98946.91;;;13.78;80.05
38616;BME280;24370;51.986;4.666;2023-03-14T06:12:31;98958.31;;;13.61;75.85
38616;BME280;24370;51.986;4.666;2023-03-14T06:14:56;98964.28;;;13.47;78.71
38616;BME280;24370;51.986;4.666;2023-03-14T06:17:22;98957.38;;;14.27;73.69
38616;BME280;24370;51.986;4.666;2023-03-14T06:19:47;98961.63;;;14.30;77.44
38616;BME280;24370;51.986;4.666;2023-03-14T06:22:12;98960.75;;;14.45;74.84
38616;BME280;24370;51.986;4.666;2023-03-14T06:24:38;98973.31;;;14.24;72.00
38616;BME280;24370;51.986;4.666;2023-03-14T06:27:04;98979.16;;;13.29;76.54
38616;BME280;24370;51.986;4.666;2023-03-14T06:29:32;98998.22;;;13.15;77.70
38616;BME280;24370;51.986;4.666;2023-03-14T06:31:58;99003.00;;;13.59;77.61
38616;BME280;24370;51.986;4.666;2023-03-14T06:34:23;99007.75;;;13.86;75.65
38616;BME280;24370;51.986;4.666;2023-03-14T06:36:48;99000.00;;;14.00;76.34
38616;BME280;24370;51.986;4.666;2023-03-14T06:39:14;99009.81;;;13.63;78.21
38616;BME280;24370;51.986;4.666;2023-03-14T06:41:39;99026.84;;;13.54;79.01
38616;BME280;24370;51.986;4.666;2023-03-14T06:44:05;99032.09;;;13.19;79.10
38616;BME280;24370;51.986;4.666;2023-03-14T06:46:30;99045.19;;;12.83;78.07
38616;BME280;24370;51.986;4.666;2023-03-14T06:48:55;99057.84;;;13.48;75.88
38616;BME280;24370;51.986;4.666;2023-03-14T06:51:21;99058.97;;;12.69;78.61
38616;BME280;24370;51.986;4.666;2023-03-14T06:53:46;99068.97;;;12.61;78.26
38616;BME280;24370;51.986;4.666;2023-03-14T06:56:11;99070.50;;;13.39;73.70
38616;BME280;24370;51.986;4.666;2023-03-14T06:58:37;99079.13;;;13.42;74.90
38616;BME280;24370;51.986;4.666;2023-03-14T07:01:02;99096.63;;;13.04;75.48
38616;BME280;24370;51.986;4.666;2023-03-14T07:03:28;99090.25;;;12.91;76.34
38616;BME280;24370;51.986;4.666;2023-03-14T07:05:54;99105.31;;;13.24;74.39
38616;BME280;24370;51.986;4.666;2023-03-14T07:08:19;99108.31;;;13.35;74.91
38616;BME280;24370;51.986;4.666;2023-03-14T07:10:44;99129.31;;;13.35;73.53
38616;BME280;24370;51.986;4.666;2023-03-14T07:13:10;99119.97;;;13.28;73.11
38616;BME280;24370;51.986;4.666;2023-03-14T07:15:35;99139.16;;;12.73;77.63
38616;BME280;24370;51.986;4.666;2023-03-14T07:18:01;99131.16;;;13.51;74.69
38616;BME280;24370;51.986;4.666;2023-03-14T07:20:26;99150.22;;;13.54;73.41
38616;BME280;24370;51.986;4.666;2023-03-14T07:22:52;99155.97;;;13.98;70.72
38616;BME280;24370;51.986;4.666;2023-03-14T07:25:17;99169.91;;;14.51;69.16
38616;BME280;24370;51.986;4.666;2023-03-14T07:27:44;99179.25;;;14.05;71.54
38616;BME280;24370;51.986;4.666;2023-03-14T07:30:10;99177.63;;;14.03;69.00
38616;BME280;24370;51.986;4.666;2023-03-14T07:32:35;99187.03;;;13.35;72.49
38616;BME280;24370;51.986;4.666;2023-03-14T07:35:01;99195.56;;;13.58;69.90
38616;BME280;24370;51.986;4.666;2023-03-14T07:37:27;99214.31;;;13.31;74.38
38616;BME280;24370;51.986;4.666;2023-03-14T07:39:52;99217.31;;;13.43;71.82
38616;BME280;24370;51.986;4.666;2023-03-14T07:42:18;99234.44;;;13.12;73.69
38616;BME280;24370;51.986;4.666;2023-03-14T07:44:43;99244.34;;;12.86;75.26
38616;BME280;24370;51.986;4.666;2023-03-14T07:47:08;99248.00;;;13.40;79.52
38616;BME280;24370;51.986;4.666;2023-03-14T07:49:34;99257.19;;;13.11;77.77
38616;BME280;24370;51.986;4.666;2023-03-14T07:51:59;99264.03;;;13.34;76.46
38616;BME280;24370;51.986;4.666;2023-03-14T07:54:24;99274.75;;;13.49;75.83
38616;BME280;24370;51.986;4.666;2023-03-14T07:56:51;99306.22;;;12.90;77.65
38616;BME280;24370;51.986;4.666;2023-03-14T07:59:17;99320.47;;;12.21;80.94
38616;BME280;24370;51.986;4.666;2023-03-14T08:01:43;99324.63;;;12.04;78.53
38616;BME280;24370;51.986;4.666;2023-03-14T08:04:08;99331.06;;;12.18;80.05
38616;BME280;24370;51.986;4.666;2023-03-14T08:06:35;99347.06;;;12.12;78.74
38616;BME280;24370;51.986;4.666;2023-03-14T08:09:00;99362.13;;;11.83;78.31
38616;BME280;24370;51.986;4.666;2023-03-14T08:11:26;99369.34;;;12.22;79.48
38616;BME280;24370;51.986;4.666;2023-03-14T08:13:51;99378.50;;;12.12;79.09
38616;BME280;24370;51.986;4.666;2023-03-14T08:16:17;99387.81;;;12.19;77.73
38616;BME280;24370;51.986;4.666;2023-03-14T08:18:44;99403.56;;;11.95;78.97
38616;BME280;24370;51.986;4.666;2023-03-14T08:21:10;99410.88;;;12.31;73.30
38616;BME280;24370;51.986;4.666;2023-03-14T08:23:35;99429.91;;;12.59;74.19
38616;BME280;24370;51.986;4.666;2023-03-14T08:26:01;99431.16;;;12.91;69.86
38616;BME280;24370;51.986;4.666;2023-03-14T08:28:27;99450.16;;;12.76;70.12
38616;BME280;24370;51.986;4.666;2023-03-14T08:30:56;99465.72;;;12.58;71.85
38616;BME280;24370;51.986;4.666;2023-03-14T08:33:21;99474.47;;;12.13;74.70
38616;BME280;24370;51.986;4.666;2023-03-14T08:35:47;99489.88;;;11.48;72.18
38616;BME280;24370;51.986;4.666;2023-03-14T08:38:12;99497.25;;;12.11;71.10
38616;BME280;24370;51.986;4.666;2023-03-14T08:40:38;99521.88;;;11.56;70.99
38616;BME280;24370;51.986;4.666;2023-03-14T08:43:03;99541.34;;;10.39;74.60
38616;BME280;24370;51.986;4.666;2023-03-14T08:45:28;99544.94;;;11.45;71.48
38616;BME280;24370;51.986;4.666;2023-03-14T08:47:54;99539.78;;;11.92;65.59
38616;BME280;24370;51.986;4.666;2023-03-14T08:50:19;99558.03;;;11.45;67.60
38616;BME280;24370;51.986;4.666;2023-03-14T08:52:45;99569.91;;;11.28;65.80
38616;BME280;24370;51.986;4.666;2023-03-14T08:55:11;99566.34;;;11.81;63.17
38616;BME280;24370;51.986;4.666;2023-03-14T08:57:36;99574.75;;;11.91;64.61
38616;BME280;24370;51.986;4.666;2023-03-14T09:00:04;99584.63;;;12.57;60.39
38616;BME280;24370;51.986;4.666;2023-03-14T09:02:39;99603.66;;;11.63;62.40
38616;BME280;24370;51.986;4.666;2023-03-14T09:05:05;99599.28;;;12.37;57.34
38616;BME280;24370;51.986;4.666;2023-03-14T09:07:30;99609.56;;;12.20;58.46
38616;BME280;24370;51.986;4.666;2023-03-14T09:09:56;99615.78;;;12.87;56.57
38616;BME280;24370;51.986;4.666;2023-03-14T09:12:21;99629.09;;;13.04;56.77
38616;BME280;24370;51.986;4.666;2023-03-14T09:14:47;99643.38;;;12.26;58.94
38616;BME280;24370;51.986;4.666;2023-03-14T09:17:12;99645.69;;;13.92;54.23
38616;BME280;24370;51.986;4.666;2023-03-14T09:19:37;99652.16;;;13.18;54.81
38616;BME280;24370;51.986;4.666;2023-03-14T09:22:03;99663.56;;;13.84;54.53
38616;BME280;24370;51.986;4.666;2023-03-14T09:24:28;99672.38;;;13.61;54.76
38616;BME280;24370;51.986;4.666;2023-03-14T09:26:55;99681.69;;;14.11;52.87
38616;BME280;24370;51.986;4.666;2023-03-14T09:29:21;99697.66;;;12.95;55.18
38616;BME280;24370;51.986;4.666;2023-03-14T09:31:47;99706.22;;;12.77;56.35
38616;BME280;24370;51.986;4.666;2023-03-14T09:34:12;99711.47;;;12.77;56.15
38616;BME280;24370;51.986;4.666;2023-03-14T09:36:37;99727.00;;;14.16;52.61
38616;BME280;24370;51.986;4.666;2023-03-14T09:39:05;99738.50;;;13.70;53.46
38616;BME280;24370;51.986;4.666;2023-03-14T09:41:37;99742.34;;;13.16;52.96
38616;BME280;24370;51.986;4.666;2023-03-14T09:44:15;99762.31;;;13.20;56.85
38616;BME280;24370;51.986;4.666;2023-03-14T09:46:43;99780.91;;;11.86;60.97
38616;BME280;24370;51.986;4.666;2023-03-14T09:49:33;99790.19;;;11.40;66.97
38616;BME280;24370;51.986;4.666;2023-03-14T09:52:02;99793.38;;;11.78;68.89
38616;BME280;24370;51.986;4.666;2023-03-14T09:54:43;99808.41;;;11.43;68.18
38616;BME280;24370;51.986;4.666;2023-03-14T09:57:15;99814.63;;;12.76;66.58
38616;BME280;24370;51.986;4.666;2023-03-14T09:59:44;99822.44;;;11.98;66.83
38616;BME280;24370;51.986;4.666;2023-03-14T10:02:21;99839.53;;;11.52;65.91
38616;BME280;24370;51.986;4.666;2023-03-14T10:04:49;99844.44;;;11.33;68.52
38616;BME280;24370;51.986;4.666;2023-03-14T10:07:28;99849.84;;;11.58;64.37
38616;BME280;24370;51.986;4.666;2023-03-14T10:09:53;99852.69;;;12.35;59.53
38616;BME280;24370;51.986;4.666;2023-03-14T10:12:20;99868.53;;;12.32;59.48
38616;BME280;24370;51.986;4.666;2023-03-14T10:14:55;99867.19;;;12.72;56.37
38616;BME280;24370;51.986;4.666;2023-03-14T10:17:20;99875.00;;;13.72;53.61
38616;BME280;24370;51.986;4.666;2023-03-14T10:19:57;99889.47;;;13.60;52.41
38616;BME280;24370;51.986;4.666;2023-03-14T10:22:25;99893.94;;;13.33;52.63
38616;BME280;24370;51.986;4.666;2023-03-14T10:25:01;99906.69;;;13.44;53.91
38616;BME280;24370;51.986;4.666;2023-03-14T10:27:29;99911.66;;;13.26;52.27
38616;BME280;24370;51.986;4.666;2023-03-14T10:29:57;99906.63;;;14.15;51.66
38616;BME280;24370;51.986;4.666;2023-03-14T10:32:29;99936.81;;;13.57;52.22
38616;BME280;24370;51.986;4.666;2023-03-14T10:38:02;99963.34;;;12.15;52.12
38616;BME280;24370;51.986;4.666;2023-03-14T10:40:33;99985.19;;;11.20;55.07
38616;BME280;24370;51.986;4.666;2023-03-14T10:42:59;99990.38;;;11.54;51.38
38616;BME280;24370;51.986;4.666;2023-03-14T10:45:31;99998.50;;;12.38;49.18
38616;BME280;24370;51.986;4.666;2023-03-14T10:48:58;100006.25;;;13.23;47.34
38616;BME280;24370;51.986;4.666;2023-03-14T10:51:01;100019.75;;;11.97;48.41
38616;BME280;24370;51.986;4.666;2023-03-14T10:53:33;100019.16;;;12.19;48.79
38616;BME280;24370;51.986;4.666;2023-03-14T10:56:02;100030.88;;;12.92;46.73
38616;BME280;24370;51.986;4.666;2023-03-14T10:58:30;100026.91;;;13.59;44.73
38616;BME280;24370;51.986;4.666;2023-03-14T11:03:24;100069.50;;;12.29;45.09
38616;BME280;24370;51.986;4.666;2023-03-14T11:05:59;100064.59;;;13.82;44.02
38616;BME280;24370;51.986;4.666;2023-03-14T11:08:52;100073.47;;;14.74;41.48
38616;BME280;24370;51.986;4.666;2023-03-14T11:11:26;100083.06;;;13.80;42.66
38616;BME280;24370;51.986;4.666;2023-03-14T11:14:01;100096.38;;;14.48;41.67
38616;BME280;24370;51.986;4.666;2023-03-14T11:19:32;100115.94;;;13.12;42.95
38616;BME280;24370;51.986;4.666;2023-03-14T11:22:25;100119.69;;;13.85;40.49
38616;BME280;24370;51.986;4.666;2023-03-14T11:25:11;100138.25;;;14.29;39.66
38616;BME280;24370;51.986;4.666;2023-03-14T11:30:44;100168.88;;;15.01;39.65
38616;BME280;24370;51.986;4.666;2023-03-14T11:33:18;100156.34;;;14.86;37.20
38616;BME280;24370;51.986;4.666;2023-03-14T11:36:03;100163.97;;;15.16;37.13
38616;BME280;24370;51.986;4.666;2023-03-14T11:41:00;100179.22;;;14.35;35.75
38616;BME280;24370;51.986;4.666;2023-03-14T11:43:35;100192.94;;;14.92;34.69
38616;BME280;24370;51.986;4.666;2023-03-14T11:46:17;100192.69;;;16.49;34.40
38616;BME280;24370;51.986;4.666;2023-03-14T11:51:29;100220.34;;;14.61;33.25
38616;BME280;24370;51.986;4.666;2023-03-14T11:59:05;100240.06;;;13.99;34.06
38616;BME280;24370;51.986;4.666;2023-03-14T12:02:09;100240.75;;;15.03;32.16
38616;BME280;24370;51.986;4.666;2023-03-14T12:04:56;100237.72;;;14.67;34.37
38616;BME280;24370;51.986;4.666;2023-03-14T12:07:41;100256.34;;;15.32;33.19
38616;BME280;24370;51.986;4.666;2023-03-14T12:10:12;100245.16;;;14.03;35.46
38616;BME280;24370;51.986;4.666;2023-03-14T12:12:38;100242.47;;;15.04;33.52
38616;BME280;24370;51.986;4.666;2023-03-14T12:15:04;100258.72;;;14.92;32.99
38616;BME280;24370;51.986;4.666;2023-03-14T12:17:41;100266.09;;;16.78;30.55
38616;BME280;24370;51.986;4.666;2023-03-14T12:20:17;100273.22;;;14.28;32.59
38616;BME280;24370;51.986;4.666;2023-03-14T12:22:50;100280.22;;;15.27;32.47
38616;BME280;24370;51.986;4.666;2023-03-14T12:25:20;100283.22;;;13.63;33.31
38616;BME280;24370;51.986;4.666;2023-03-14T12:30:34;100292.13;;;13.86;33.57
38616;BME280;24370;51.986;4.666;2023-03-14T12:35:40;100306.69;;;14.23;32.26
38616;BME280;24370;51.986;4.666;2023-03-14T12:38:13;100312.50;;;13.51;33.06
38616;BME280;24370;51.986;4.666;2023-03-14T12:40:57;100308.22;;;14.30;32.82
38616;BME280;24370;51.986;4.666;2023-03-14T12:43:29;100317.50;;;13.87;34.40
38616;BME280;24370;51.986;4.666;2023-03-14T12:48:47;100318.56;;;14.60;32.48
38616;BME280;24370;51.986;4.666;2023-03-14T12:51:16;100316.44;;;14.46;32.84
38616;BME280;24370;51.986;4.666;2023-03-14T12:56:40;100336.06;;;14.88;33.27
38616;BME280;24370;51.986;4.666;2023-03-14T12:59:26;100348.78;;;15.24;32.54
38616;BME280;24370;51.986;4.666;2023-03-14T13:01:54;100349.66;;;14.49;32.65
38616;BME280;24370;51.986;4.666;2023-03-14T13:04:27;100360.31;;;14.17;32.48
38616;BME280;24370;51.986;4.666;2023-03-14T13:06:54;100373.31;;;13.65;31.53
38616;BME280;24370;51.986;4.666;2023-03-14T13:12:16;100392.28;;;14.58;30.63
38616;BME280;24370;51.986;4.666;2023-03-14T13:14:45;100385.13;;;15.14;29.73
38616;BME280;24370;51.986;4.666;2023-03-14T13:17:13;100406.03;;;13.55;32.61
38616;BME280;24370;51.986;4.666;2023-03-14T13:19:39;100406.28;;;13.76;31.94
38616;BME280;24370;51.986;4.666;2023-03-14T13:22:20;100430.66;;;13.51;32.22
38616;BME280;24370;51.986;4.666;2023-03-14T13:24:46;100433.22;;;13.52;31.88
38616;BME280;24370;51.986;4.666;2023-03-14T13:27:19;100444.47;;;12.92;31.21
38616;BME280;24370;51.986;4.666;2023-03-14T13:29:48;100451.16;;;13.36;32.42
38616;BME280;24370;51.986;4.666;2023-03-14T13:32:20;100461.31;;;12.06;33.47
38616;BME280;24370;51.986;4.666;2023-03-14T13:34:46;100481.50;;;13.14;32.85
38616;BME280;24370;51.986;4.666;2023-03-14T13:37:21;100457.22;;;13.05;32.14
38616;BME280;24370;51.986;4.666;2023-03-14T13:39:55;100473.97;;;12.65;32.50
38616;BME280;24370;51.986;4.666;2023-03-14T13:42:25;100487.19;;;12.95;32.66
38616;BME280;24370;51.986;4.666;2023-03-14T13:44:52;100485.03;;;12.39;33.13
38616;BME280;24370;51.986;4.666;2023-03-14T13:47:20;100484.59;;;12.59;32.55